Time;durP1;ratioP1;P1;durP2;ratioP2;P2;SDS_P1;SDS_P2;PMS_P1;PMS_P2;Temp;Humidity;BMP_temperature;BMP_pressure;BME280_temperature;BME280_humidity;BME280_pressure;Samples;Min_cycle;Max_cycle;Signal;HPM_P1;HPM_P2
2023/05/07 00:00:40;;;;;;;11.48;6.60;;;;;;;12.51;62.82;102114.91;5013628;28;20042;-36
2023/05/07 00:03:06;;;;;;;5.68;4.20;;;;;;;12.49;62.71;102114.13;4985605;28;20044;-35
2023/05/07 00:05:32;;;;;;;12.57;6.45;;;;;;;12.52;62.67;102113.13;5006732;28;20859;-36
2023/05/07 00:07:57;;;;;;;10.85;6.90;;;;;;;12.53;62.61;102113.06;4992618;28;20056;-35
2023/05/07 00:10:23;;;;;;;10.93;7.07;;;;;;;12.52;62.51;102121.91;5012266;28;20051;-36
2023/05/07 00:12:48;;;;;;;14.15;6.30;;;;;;;12.52;62.52;102110.47;5019762;28;20041;-34
2023/05/07 00:15:17;;;;;;;12.20;6.80;;;;;;;12.52;62.47;102111.34;5021689;28;20026;-35
2023/05/07 00:17:42;;;;;;;10.73;6.45;;;;;;;12.49;62.50;102112.31;5016714;28;22099;-34
2023/05/07 00:20:08;;;;;;;13.10;7.13;;;;;;;12.49;62.30;102117.59;4997561;28;20033;-35
2023/05/07 00:22:34;;;;;;;12.30;6.18;;;;;;;12.48;62.30;102115.88;5003763;28;20083;-35
2023/05/07 00:25:00;;;;;;;10.32;5.82;;;;;;;12.45;62.36;102121.31;5005918;28;20107;-36
2023/05/07 00:27:25;;;;;;;12.50;6.80;;;;;;;12.44;62.42;102124.00;5010998;28;20052;-35
2023/05/07 00:29:51;;;;;;;11.05;5.63;;;;;;;12.41;62.48;102124.13;5004515;28;20029;-36
2023/05/07 00:32:16;;;;;;;10.70;5.70;;;;;;;12.40;62.28;102128.56;5012012;28;20017;-35
2023/05/07 00:34:47;;;;;;;13.48;6.63;;;;;;;12.38;62.40;102125.13;5017017;28;20052;-35
2023/05/07 00:37:16;;;;;;;10.27;5.97;;;;;;;12.37;62.50;102126.06;5011926;28;20039;-36
2023/05/07 00:39:41;;;;;;;10.20;6.00;;;;;;;12.34;62.50;102119.16;5014090;28;20025;-36
2023/05/07 00:42:07;;;;;;;14.35;6.25;;;;;;;12.33;62.40;102119.19;5010344;28;20041;-35
2023/05/07 00:44:33;;;;;;;10.60;5.72;;;;;;;12.31;62.32;102113.16;5007940;28;20030;-35
2023/05/07 00:47:03;;;;;;;9.13;5.68;;;;;;;12.28;62.40;102118.56;5010502;28;20041;-36
2023/05/07 00:49:47;;;;;;;10.10;5.18;;;;;;;12.22;62.55;102119.69;5009820;28;20183;-35
2023/05/07 00:52:16;;;;;;;11.30;5.57;;;;;;;12.20;62.32;102122.38;4987930;28;20753;-35
2023/05/07 00:54:43;;;;;;;9.32;5.50;;;;;;;12.11;62.46;102122.75;4996419;28;20029;-35
2023/05/07 00:57:11;;;;;;;12.70;6.00;;;;;;;12.10;62.46;102115.78;5010393;28;20029;-36
2023/05/07 00:59:38;;;;;;;8.82;5.80;;;;;;;12.11;62.46;102112.22;5000398;28;20041;-35
2023/05/07 01:02:03;;;;;;;10.63;6.22;;;;;;;12.10;62.39;102126.31;5010463;28;20381;-35
2023/05/07 01:04:29;;;;;;;10.05;5.50;;;;;;;12.09;62.32;102135.16;5013697;28;20044;-35
2023/05/07 01:06:57;;;;;;;12.75;5.95;;;;;;;12.09;62.30;102129.88;5009351;28;20491;-36
2023/05/07 01:09:25;;;;;;;9.40;6.13;;;;;;;12.06;62.34;102143.19;5009122;28;20361;-36
2023/05/07 01:11:51;;;;;;;10.98;5.60;;;;;;;12.02;62.41;102141.63;5005069;28;20079;-35
2023/05/07 01:14:18;;;;;;;11.85;5.70;;;;;;;12.04;62.27;102145.03;5008470;28;20025;-34
2023/05/07 01:16:44;;;;;;;8.52;5.60;;;;;;;12.02;62.13;102139.84;5007058;28;20060;-35
2023/05/07 01:19:11;;;;;;;13.10;5.93;;;;;;;12.03;62.26;102138.03;5012273;28;20164;-35
2023/05/07 01:21:37;;;;;;;10.43;5.32;;;;;;;12.04;62.10;102132.72;5013031;28;20124;-35
2023/05/07 01:24:04;;;;;;;14.98;5.47;;;;;;;12.04;62.31;102138.00;5008475;28;20061;-35
2023/05/07 01:26:30;;;;;;;13.93;6.03;;;;;;;11.95;62.27;102135.69;5011282;28;20033;-35
2023/05/07 01:28:56;;;;;;;15.88;5.85;;;;;;;11.86;62.43;102134.31;4987950;28;20048;-35
2023/05/07 01:31:23;;;;;;;10.73;6.20;;;;;;;11.83;62.52;102138.84;5007405;28;20030;-35
2023/05/07 01:33:51;;;;;;;9.43;5.30;;;;;;;11.84;62.43;102130.88;4999476;28;20099;-35
2023/05/07 01:36:20;;;;;;;13.38;5.68;;;;;;;11.82;62.37;102139.75;5007702;28;20128;-35
2023/05/07 01:38:47;;;;;;;12.15;5.93;;;;;;;11.77;62.45;102129.41;4994498;28;21421;-35
2023/05/07 01:41:12;;;;;;;7.88;5.32;;;;;;;11.74;62.46;102132.16;5002200;28;20041;-34
2023/05/07 01:43:42;;;;;;;13.93;6.03;;;;;;;11.74;62.44;102134.78;4994883;28;20037;-35
2023/05/07 01:46:09;;;;;;;12.45;5.57;;;;;;;11.72;62.42;102139.28;5008439;28;20041;-34
2023/05/07 01:48:45;;;;;;;10.48;5.75;;;;;;;11.71;62.43;102134.94;5011151;28;20068;-35
2023/05/07 01:51:11;;;;;;;8.90;5.07;;;;;;;11.68;62.29;102137.69;5001866;28;20037;-35
2023/05/07 01:53:37;;;;;;;11.20;5.43;;;;;;;11.65;62.35;102138.66;5006575;28;20029;-34
2023/05/07 01:56:03;;;;;;;10.43;5.60;;;;;;;11.63;62.38;102139.66;5001375;28;20152;-35
2023/05/07 01:58:28;;;;;;;9.80;5.15;;;;;;;11.61;62.27;102145.00;4993544;28;20148;-35
2023/05/07 02:00:54;;;;;;;9.02;5.15;;;;;;;11.58;62.34;102151.22;4994962;28;20025;-35
2023/05/07 02:03:21;;;;;;;11.88;5.75;;;;;;;11.57;62.30;102152.13;4999316;28;20037;-35
2023/05/07 02:05:47;;;;;;;14.00;5.28;;;;;;;11.53;62.31;102150.56;5004038;28;20064;-35
2023/05/07 02:08:12;;;;;;;12.32;5.97;;;;;;;11.51;62.53;102155.03;5001732;28;20129;-35
2023/05/07 02:10:38;;;;;;;11.82;5.63;;;;;;;11.49;62.47;102150.75;5002926;28;20088;-35
2023/05/07 02:13:03;;;;;;;8.07;3.67;;;;;;;11.47;62.52;102153.44;5000825;28;20038;-35
2023/05/07 02:15:32;;;;;;;8.30;5.78;;;;;;;11.48;62.32;102149.03;5003414;28;20029;-35
2023/05/07 02:18:09;;;;;;;7.95;5.20;;;;;;;11.48;62.26;102149.88;5000045;28;20095;-35
2023/05/07 02:20:35;;;;;;;9.88;5.22;;;;;;;11.45;62.22;102150.00;5006618;28;20155;-35
2023/05/07 02:23:00;;;;;;;10.32;4.97;;;;;;;11.43;62.28;102146.56;5005220;28;20112;-35
2023/05/07 02:25:26;;;;;;;11.73;5.30;;;;;;;11.41;62.15;102143.97;5005997;28;20488;-35
2023/05/07 02:27:51;;;;;;;14.57;5.88;;;;;;;11.40;62.12;102146.69;5001564;28;20155;-35
2023/05/07 02:30:17;;;;;;;8.77;5.80;;;;;;;11.40;62.34;102157.25;5006473;28;20144;-35
2023/05/07 02:32:42;;;;;;;10.90;5.80;;;;;;;11.38;62.19;102156.44;5004680;28;20834;-36
2023/05/07 02:35:08;;;;;;;13.77;5.55;;;;;;;11.30;62.30;102151.47;5008967;28;20017;-35
2023/05/07 02:37:33;;;;;;;11.43;5.20;;;;;;;11.32;62.32;102165.44;5002640;28;20041;-35
2023/05/07 02:39:59;;;;;;;11.75;6.25;;;;;;;11.35;61.94;102170.56;4980696;28;20033;-34
2023/05/07 02:42:30;;;;;;;9.70;5.18;;;;;;;11.35;62.32;102169.72;4999894;28;20044;-35
2023/05/07 02:44:55;;;;;;;12.60;6.30;;;;;;;11.36;62.17;102166.16;5008199;28;20140;-35
2023/05/07 02:47:22;;;;;;;9.27;5.60;;;;;;;11.36;62.27;102169.66;5007135;28;20037;-35
2023/05/07 02:49:47;;;;;;;12.02;6.07;;;;;;;11.37;62.23;102170.53;4996778;28;20048;-35
2023/05/07 02:52:13;;;;;;;9.88;5.93;;;;;;;11.36;62.14;102177.56;5001691;28;20029;-35
2023/05/07 02:54:38;;;;;;;9.23;5.22;;;;;;;11.33;62.25;102171.53;4995530;28;20379;-35
2023/05/07 02:57:06;;;;;;;8.45;5.60;;;;;;;11.34;62.45;102179.41;5005439;28;20037;-35
2023/05/07 02:59:31;;;;;;;11.30;6.05;;;;;;;11.38;62.34;102174.88;4996867;28;20048;-35
2023/05/07 03:01:57;;;;;;;9.73;5.40;;;;;;;11.36;62.42;102177.56;5004873;28;20034;-35
2023/05/07 03:04:22;;;;;;;9.25;5.75;;;;;;;11.32;62.23;102169.84;4977786;28;20034;-35
2023/05/07 03:06:50;;;;;;;12.40;6.10;;;;;;;11.33;62.46;102171.53;5003002;28;20045;-34
2023/05/07 03:09:16;;;;;;;10.50;5.28;;;;;;;11.32;62.39;102168.06;5004239;28;20122;-35
2023/05/07 03:11:41;;;;;;;13.18;5.63;;;;;;;11.31;62.36;102173.38;5005086;28;20066;-35
2023/05/07 03:14:07;;;;;;;8.70;5.32;;;;;;;11.31;62.39;102176.00;5007012;28;20121;-35
2023/05/07 03:16:32;;;;;;;20.50;5.97;;;;;;;11.27;62.42;102176.13;5001362;28;20044;-35
2023/05/07 03:18:58;;;;;;;9.23;5.97;;;;;;;11.24;62.45;102171.00;5006027;28;20038;-35
2023/05/07 03:21:23;;;;;;;10.70;5.82;;;;;;;11.22;62.36;102167.56;4990349;28;20037;-35
2023/05/07 03:23:49;;;;;;;12.43;5.75;;;;;;;11.18;62.44;102173.00;5007676;28;20030;-35
2023/05/07 03:26:14;;;;;;;11.85;5.72;;;;;;;11.13;62.47;102174.03;5004544;28;20052;-34
2023/05/07 03:28:40;;;;;;;12.43;6.55;;;;;;;11.15;62.52;102173.13;5007259;28;20502;-35
2023/05/07 03:31:06;;;;;;;12.30;6.05;;;;;;;11.13;62.29;102176.66;5008065;28;20045;-35
2023/05/07 03:33:34;;;;;;;11.98;6.38;;;;;;;11.12;62.33;102174.06;5008626;28;20033;-34
2023/05/07 03:36:00;;;;;;;9.60;5.80;;;;;;;11.09;62.24;102177.69;5006248;28;20135;-35
2023/05/07 03:38:26;;;;;;;13.25;6.65;;;;;;;11.09;62.44;102174.19;5011540;28;20097;-35
2023/05/07 03:40:51;;;;;;;10.60;5.97;;;;;;;11.05;62.28;102181.34;5007373;28;20095;-35
2023/05/07 03:43:17;;;;;;;16.90;6.47;;;;;;;11.04;62.49;102181.41;5005889;28;20120;-34
2023/05/07 03:45:42;;;;;;;12.27;7.32;;;;;;;11.03;62.41;102184.94;5005787;28;20104;-35
2023/05/07 03:48:11;;;;;;;33.38;15.18;;;;;;;10.96;62.40;102176.41;5000587;28;20038;-35
2023/05/07 03:50:37;;;;;;;18.88;9.70;;;;;;;10.96;62.49;102190.47;5000633;28;20037;-35
2023/05/07 03:53:03;;;;;;;11.05;6.75;;;;;;;10.97;62.57;102196.56;5009253;28;20711;-35
2023/05/07 03:55:29;;;;;;;9.73;6.38;;;;;;;10.91;62.21;102187.13;4998202;28;20033;-34
2023/05/07 03:57:56;;;;;;;10.75;6.70;;;;;;;10.88;62.41;102184.59;4998408;28;20120;-34
2023/05/07 04:00:22;;;;;;;11.57;5.85;;;;;;;10.88;62.33;102187.22;5002689;28;20033;-35
2023/05/07 04:02:47;;;;;;;11.10;5.38;;;;;;;10.86;62.33;102191.69;5004364;28;20033;-34
2023/05/07 04:05:14;;;;;;;11.20;6.10;;;;;;;10.81;62.40;102196.28;5008860;28;20522;-35
2023/05/07 04:07:40;;;;;;;13.57;6.28;;;;;;;10.71;62.72;102189.59;5002452;28;20037;-35
2023/05/07 04:10:05;;;;;;;15.98;6.43;;;;;;;10.73;62.79;102198.31;5001747;28;20033;-35
2023/05/07 04:12:34;;;;;;;11.73;6.05;;;;;;;10.78;62.65;102193.75;5001397;28;20033;-34
2023/05/07 04:14:59;;;;;;;12.88;6.40;;;;;;;10.79;62.46;102198.94;4997957;28;20025;-35
2023/05/07 04:17:25;;;;;;;13.48;6.53;;;;;;;10.80;62.41;102199.81;5006214;28;20033;-34
2023/05/07 04:19:50;;;;;;;11.82;6.82;;;;;;;10.83;62.41;102207.59;4998561;28;20038;-35
2023/05/07 04:22:16;;;;;;;15.32;7.95;;;;;;;10.82;62.69;102213.75;5003686;28;20081;-35
2023/05/07 04:24:41;;;;;;;13.90;7.88;;;;;;;10.82;62.70;102214.63;5005259;28;20026;-35
2023/05/07 04:27:06;;;;;;;11.32;5.88;;;;;;;10.87;62.55;102211.84;4994275;28;20033;-35
2023/05/07 04:29:32;;;;;;;10.95;6.28;;;;;;;10.92;62.32;102214.31;5004129;28;20072;-34
2023/05/07 04:31:58;;;;;;;13.23;5.88;;;;;;;10.91;62.50;102218.72;5005382;28;20041;-34
2023/05/07 04:34:24;;;;;;;13.23;7.40;;;;;;;10.95;62.34;102215.06;4990015;28;20044;-35
2023/05/07 04:36:49;;;;;;;12.70;7.55;;;;;;;11.00;62.37;102221.94;5003448;28;20029;-35
2023/05/07 04:39:17;;;;;;;11.65;7.35;;;;;;;11.01;62.39;102224.53;5004915;28;20037;-35
2023/05/07 04:41:43;;;;;;;14.27;6.80;;;;;;;11.01;62.48;102223.66;5004449;28;20522;-35
2023/05/07 04:44:09;;;;;;;12.45;6.28;;;;;;;10.95;62.60;102224.72;5002925;28;20060;-35
2023/05/07 04:46:34;;;;;;;14.02;6.35;;;;;;;10.92;62.73;102225.72;4992685;28;20466;-35
2023/05/07 04:49:00;;;;;;;14.93;8.35;;;;;;;10.95;62.71;102228.25;4996454;28;20073;-35
2023/05/07 04:51:25;;;;;;;41.97;18.98;;;;;;;10.96;62.67;102223.81;5001331;28;21362;-35
2023/05/07 04:53:50;;;;;;;12.45;6.90;;;;;;;10.98;62.67;102232.53;4995266;28;20029;-35
2023/05/07 04:56:16;;;;;;;10.50;6.70;;;;;;;10.99;62.70;102242.16;4998107;28;20037;-34
2023/05/07 04:58:41;;;;;;;12.60;6.50;;;;;;;11.01;62.76;102239.47;4998696;28;20041;-34
2023/05/07 05:01:07;;;;;;;12.50;5.95;;;;;;;11.01;62.84;102234.19;5000951;28;20432;-35
2023/05/07 05:03:32;;;;;;;13.52;5.72;;;;;;;11.04;62.75;102244.63;4999497;28;20033;-35
2023/05/07 05:05:59;;;;;;;10.82;6.80;;;;;;;11.06;62.69;102241.00;5008560;28;21403;-35
2023/05/07 05:08:25;;;;;;;14.23;5.80;;;;;;;11.10;62.59;102244.41;5000275;28;20048;-34
2023/05/07 05:10:51;;;;;;;9.02;5.85;;;;;;;11.07;62.75;102241.88;4995258;28;20036;-35
2023/05/07 05:13:16;;;;;;;12.77;6.70;;;;;;;11.11;62.52;102249.63;4982703;28;20029;-35
2023/05/07 05:15:42;;;;;;;12.52;6.47;;;;;;;11.15;62.51;102239.81;5009322;28;20034;-35
2023/05/07 05:18:07;;;;;;;11.10;5.93;;;;;;;11.18;62.39;102242.34;5001739;28;20025;-35
2023/05/07 05:20:33;;;;;;;11.45;6.32;;;;;;;11.21;62.50;102247.50;4998564;28;20638;-35
2023/05/07 05:22:58;;;;;;;12.45;6.25;;;;;;;11.24;62.42;102247.41;5005702;28;20563;-35
2023/05/07 05:25:24;;;;;;;13.70;6.95;;;;;;;11.24;62.45;102247.41;4988457;28;20029;-34
2023/05/07 05:27:51;;;;;;;9.88;5.68;;;;;;;11.24;62.54;102257.94;4989229;28;20971;-35
2023/05/07 05:30:17;;;;;;;23.85;11.32;;;;;;;11.24;62.51;102257.06;4996197;28;20053;-36
2023/05/07 05:32:44;;;;;;;13.52;6.95;;;;;;;11.24;62.54;102257.94;5001252;28;20510;-35
2023/05/07 05:35:10;;;;;;;15.60;6.55;;;;;;;11.26;62.42;102258.75;4995985;28;20108;-35
2023/05/07 05:37:36;;;;;;;11.32;6.43;;;;;;;11.29;62.44;102263.03;4993231;28;20033;-35
2023/05/07 05:40:01;;;;;;;12.00;6.05;;;;;;;11.29;62.45;102261.25;4997922;28;20808;-35
2023/05/07 05:42:27;;;;;;;10.27;5.70;;;;;;;11.28;62.40;102256.91;5002233;28;20060;-35
2023/05/07 05:44:55;;;;;;;13.73;6.32;;;;;;;11.37;62.26;102257.50;4996457;28;20060;-35
2023/05/07 05:47:21;;;;;;;8.88;5.80;;;;;;;11.38;62.22;102254.78;5000877;28;20045;-35
2023/05/07 05:49:46;;;;;;;9.40;6.00;;;;;;;11.38;62.21;102260.06;4995830;28;20037;-35
2023/05/07 05:52:17;;;;;;;15.18;6.75;;;;;;;11.41;62.20;102259.94;5005171;28;20034;-35
2023/05/07 05:54:42;;;;;;;10.77;5.78;;;;;;;11.46;61.95;102265.03;5006330;28;20051;-35
2023/05/07 05:57:08;;;;;;;11.27;6.03;;;;;;;11.48;61.86;102271.13;4985045;28;20025;-35
2023/05/07 05:59:33;;;;;;;10.02;6.32;;;;;;;11.52;61.80;102267.47;4989415;28;20033;-35
2023/05/07 06:01:59;;;;;;;12.02;6.60;;;;;;;11.55;61.82;102274.38;4986817;28;20033;-35
2023/05/07 06:04:24;;;;;;;15.68;8.18;;;;;;;11.57;61.92;102273.41;4995188;28;20036;-35
2023/05/07 06:06:56;;;;;;;13.85;6.30;;;;;;;11.57;61.67;102270.78;5012753;28;20059;-35
2023/05/07 06:09:24;;;;;;;14.85;6.65;;;;;;;11.60;61.74;102272.44;4988136;28;20187;-35
2023/05/07 06:11:50;;;;;;;9.68;5.38;;;;;;;11.66;61.75;102279.28;5002998;28;20042;-35
2023/05/07 06:14:15;;;;;;;13.13;6.03;;;;;;;11.68;61.69;102282.72;4985939;28;20411;-36
2023/05/07 06:16:43;;;;;;;17.10;8.55;;;;;;;11.71;61.66;102278.16;4986854;28;20060;-35
2023/05/07 06:19:08;;;;;;;14.63;8.05;;;;;;;11.78;61.46;102277.94;5007351;28;20479;-35
2023/05/07 06:21:34;;;;;;;10.57;5.22;;;;;;;11.82;61.40;102276.88;4991108;28;20087;-36
2023/05/07 06:23:59;;;;;;;11.15;5.57;;;;;;;11.86;61.41;102276.75;4997628;28;20116;-35
2023/05/07 06:26:25;;;;;;;10.88;5.78;;;;;;;11.87;61.29;102283.69;4988776;28;20132;-35
2023/05/07 06:28:53;;;;;;;9.75;5.15;;;;;;;11.89;61.19;102275.75;5000744;28;26172;-35
2023/05/07 06:31:22;;;;;;;9.70;4.93;;;;;;;11.88;61.33;102274.03;5009953;28;20036;-35
2023/05/07 06:33:49;;;;;;;9.32;4.80;;;;;;;11.88;61.20;102288.06;4996548;28;20056;-35
2023/05/07 06:36:14;;;;;;;11.85;5.68;;;;;;;11.89;61.27;102284.50;5001263;28;20120;-35
2023/05/07 06:38:40;;;;;;;10.60;5.10;;;;;;;11.96;60.95;102286.91;4993997;28;20033;-35
2023/05/07 06:41:06;;;;;;;8.60;4.53;;;;;;;11.98;60.84;102287.72;4986718;28;20041;-35
2023/05/07 06:43:32;;;;;;;11.75;3.92;;;;;;;12.03;61.08;102288.41;4998052;28;20079;-36
2023/05/07 06:45:58;;;;;;;6.45;4.15;;;;;;;12.07;61.00;102295.31;4987887;28;20029;-35
2023/05/07 06:48:24;;;;;;;7.93;3.78;;;;;;;12.09;60.75;102282.91;5001149;28;20040;-35
2023/05/07 06:50:50;;;;;;;11.38;4.90;;;;;;;12.13;60.57;102299.47;5003609;28;20045;-35
2023/05/07 06:53:15;;;;;;;9.80;4.50;;;;;;;12.13;60.37;102294.19;5000934;28;20033;-35
2023/05/07 06:55:41;;;;;;;9.45;3.92;;;;;;;12.16;60.12;102302.00;4996003;28;20884;-36
2023/05/07 06:58:17;;;;;;;10.23;4.25;;;;;;;12.21;59.97;102302.69;4989446;28;20390;-36
2023/05/07 07:00:42;;;;;;;7.90;3.45;;;;;;;12.24;59.65;102296.41;4989487;28;20061;-36
2023/05/07 07:03:08;;;;;;;7.60;3.72;;;;;;;12.26;59.69;102300.69;4985565;28;20456;-36
2023/05/07 07:05:33;;;;;;;9.00;3.90;;;;;;;12.32;59.60;102299.63;4989935;28;20802;-36
2023/05/07 07:07:58;;;;;;;6.78;3.88;;;;;;;12.34;59.50;102301.28;4989721;28;20037;-36
2023/05/07 07:10:24;;;;;;;13.95;4.38;;;;;;;12.39;59.40;102294.97;4998912;28;20029;-36
2023/05/07 07:12:50;;;;;;;7.28;4.15;;;;;;;12.43;58.92;102307.97;4977808;28;20060;-36
2023/05/07 07:15:16;;;;;;;11.02;3.65;;;;;;;12.45;58.67;102310.53;5021266;28;20125;-36
2023/05/07 07:17:42;;;;;;;9.00;3.80;;;;;;;12.50;58.57;102308.56;4992833;28;20040;-35
2023/05/07 07:20:08;;;;;;;10.70;4.93;;;;;;;12.55;58.43;102311.00;4999575;28;20055;-35
2023/05/07 07:22:33;;;;;;;8.20;3.90;;;;;;;12.59;58.36;102307.34;4977172;28;20034;-35
2023/05/07 07:24:59;;;;;;;5.47;3.58;;;;;;;12.63;58.14;102303.63;4993040;28;20030;-35
2023/05/07 07:27:27;;;;;;;7.00;3.47;;;;;;;12.69;58.23;102300.75;4994131;28;21550;-35
2023/05/07 07:29:53;;;;;;;9.43;4.57;;;;;;;12.73;57.78;102302.34;4997315;28;20034;-35
2023/05/07 07:32:19;;;;;;;9.68;4.18;;;;;;;12.75;57.87;102300.50;5007511;28;20460;-35
2023/05/07 07:34:44;;;;;;;10.40;4.28;;;;;;;12.76;57.71;102310.13;4983653;28;20041;-37
2023/05/07 07:37:12;;;;;;;17.35;8.32;;;;;;;12.80;57.58;102302.94;5001269;28;20495;-36
2023/05/07 07:39:43;;;;;;;9.05;4.55;;;;;;;12.88;57.16;102305.25;4981100;28;20041;-36
2023/05/07 07:42:08;;;;;;;21.02;10.27;;;;;;;12.93;57.07;102305.94;4986676;28;20117;-36
2023/05/07 07:44:34;;;;;;;12.40;5.45;;;;;;;13.00;56.84;102314.44;4991980;28;20051;-36
2023/05/07 07:46:59;;;;;;;10.48;4.70;;;;;;;13.04;56.36;102308.97;5004862;28;20080;-36
2023/05/07 07:49:30;;;;;;;10.27;3.70;;;;;;;13.07;56.03;102303.53;4994764;28;20467;-36
2023/05/07 07:51:58;;;;;;;6.07;2.75;;;;;;;13.13;56.33;102301.53;5022403;28;20092;-36
2023/05/07 07:54:24;;;;;;;10.98;4.30;;;;;;;13.16;56.00;102311.97;5013286;28;20038;-36
2023/05/07 07:56:49;;;;;;;6.28;3.72;;;;;;;13.20;55.96;102308.28;5005820;28;20045;-36
2023/05/07 07:59:18;;;;;;;10.70;3.83;;;;;;;13.22;55.50;102315.22;5000616;28;20038;-36
2023/05/07 08:01:44;;;;;;;5.72;3.00;;;;;;;13.24;55.41;102308.09;4998805;28;20042;-35
2023/05/07 08:04:10;;;;;;;8.23;3.83;;;;;;;13.23;55.51;102316.09;4974604;28;20044;-35
2023/05/07 08:06:36;;;;;;;4.85;3.40;;;;;;;13.24;55.53;102315.13;5001889;28;20041;-35
2023/05/07 08:09:02;;;;;;;8.00;3.38;;;;;;;13.25;55.50;102312.44;5014238;28;20046;-35
2023/05/07 08:11:28;;;;;;;9.95;4.28;;;;;;;13.27;55.52;102312.38;4997139;28;20049;-36
2023/05/07 08:13:54;;;;;;;6.30;3.67;;;;;;;13.32;55.56;102310.38;4981105;28;20036;-35
2023/05/07 08:55:41;;;;;;;7.05;2.42;;;;;;;13.84;53.99;102316.94;4232046;27;24633725;-36
2023/05/07 08:58:06;;;;;;;5.63;2.30;;;;;;;13.95;53.85;102317.28;5097735;27;20062;-36
2023/05/07 09:00:32;;;;;;;6.57;2.20;;;;;;;14.03;53.77;102315.09;5093073;27;20087;-36
2023/05/07 09:02:58;;;;;;;14.07;6.65;;;;;;;14.13;53.49;102315.53;5106639;27;20095;-37
2023/05/07 09:05:23;;;;;;;5.35;2.33;;;;;;;14.21;53.27;102315.16;5099748;27;20035;-35
2023/05/07 09:10:19;;;;;;;4.25;2.40;;;;;;;14.43;52.65;102322.09;5036971;28;20059;-36
2023/05/07 09:12:46;;;;;;;4.05;2.22;;;;;;;14.54;52.52;102326.81;5034613;28;20689;-36
2023/05/07 09:15:12;;;;;;;3.60;2.20;;;;;;;14.59;52.44;102323.03;5062947;28;20028;-35
2023/05/07 09:17:45;;;;;;;5.50;2.05;;;;;;;14.67;52.32;102327.09;5049058;22;21345;-35
2023/05/07 09:26:11;;;;;;;4.78;2.20;;;;;;;14.94;51.78;102331.03;5033260;28;20115;-37
2023/05/07 09:34:36;;;;;;;7.85;3.42;;;;;;;15.27;51.22;102325.84;5068941;28;20449;-36
2023/05/07 09:37:02;;;;;;;9.98;3.58;;;;;;;15.34;50.79;102327.25;5063463;28;20024;-35
2023/05/07 09:39:57;;;;;;;7.43;2.45;;;;;;;15.44;50.59;102333.78;5054611;28;20071;-35
2023/05/07 09:42:26;;;;;;;3.55;1.60;;;;;;;15.46;50.82;102329.25;5011402;22;21058;-36
2023/05/07 09:44:52;;;;;;;8.45;2.92;;;;;;;15.50;50.80;102325.47;4953457;28;20034;-37
2023/05/07 09:47:19;;;;;;;4.57;2.03;;;;;;;15.50;50.41;102329.94;4973070;28;20050;-35
2023/05/07 09:49:48;;;;;;;6.50;2.90;;;;;;;15.60;50.47;102322.34;5000796;28;20041;-34
2023/05/07 09:52:13;;;;;;;5.40;2.20;;;;;;;15.66;50.07;102320.22;4992795;28;20134;-33
2023/05/07 09:54:42;;;;;;;3.83;2.05;;;;;;;15.66;50.07;102330.84;4994906;28;20693;-37
2023/05/07 09:57:11;;;;;;;3.95;1.67;;;;;;;15.70;49.97;102320.91;4992385;28;20136;-36
2023/05/07 09:59:38;;;;;;;4.32;2.00;;;;;;;15.73;49.78;102317.25;4993429;28;20083;-35
2023/05/07 10:02:04;;;;;;;5.03;2.42;;;;;;;15.77;49.66;102318.78;4995322;28;20038;-35
2023/05/07 10:04:31;;;;;;;5.13;2.63;;;;;;;15.80;49.47;102311.53;4997788;28;20038;-35
2023/05/07 10:06:58;;;;;;;3.67;1.80;;;;;;;15.78;48.83;102307.22;4986186;28;20509;-36
2023/05/07 10:09:26;;;;;;;5.00;2.08;;;;;;;15.80;48.93;102310.66;4969191;28;20057;-35
2023/05/07 10:11:53;;;;;;;4.38;1.98;;;;;;;15.83;48.76;102310.47;4983235;28;20033;-35
2023/05/07 10:14:21;;;;;;;3.35;1.55;;;;;;;15.91;48.37;102312.75;4982818;28;20045;-36
2023/05/07 10:16:48;;;;;;;3.47;1.80;;;;;;;15.95;48.54;102309.81;4977876;28;20030;-36
2023/05/07 10:19:14;;;;;;;5.85;1.92;;;;;;;15.98;48.35;102308.78;4984807;28;20034;-36
2023/05/07 10:21:47;;;;;;;5.95;2.08;;;;;;;16.01;47.14;102308.63;4983976;28;20069;-36
2023/05/07 10:24:19;;;;;;;3.13;1.80;;;;;;;16.04;48.26;102296.97;4977841;28;20026;-36
2023/05/07 10:26:48;;;;;;;4.38;2.22;;;;;;;16.06;48.17;102301.28;4999557;28;20512;-36
2023/05/07 10:29:29;;;;;;;3.10;1.90;;;;;;;16.11;47.61;102311.63;4938719;28;20038;-37
2023/05/07 10:32:07;;;;;;;11.90;5.75;;;;;;;16.12;47.52;102306.22;4969445;28;20405;-36
2023/05/07 10:34:38;;;;;;;3.42;2.03;;;;;;;16.14;47.93;102301.69;4976721;28;20066;-36
2023/05/07 10:37:05;;;;;;;5.47;1.92;;;;;;;16.18;47.61;102305.03;4993096;28;20039;-36
2023/05/07 10:39:30;;;;;;;5.35;2.00;;;;;;;16.22;47.57;102309.22;4954520;28;20120;-36
2023/05/07 10:41:56;;;;;;;5.72;2.15;;;;;;;16.27;47.68;102308.94;4958833;28;20035;-36
2023/05/07 10:44:29;;;;;;;4.85;1.95;;;;;;;16.28;47.32;102306.22;4971826;28;20050;-36
2023/05/07 10:47:09;;;;;;;4.18;2.70;;;;;;;16.33;46.46;102307.75;4973306;28;20057;-36
2023/05/07 10:49:55;;;;;;;3.97;2.35;;;;;;;16.39;46.64;102305.59;4988019;28;20443;-36
2023/05/07 10:52:23;;;;;;;4.50;2.00;;;;;;;16.40;46.91;102299.34;4962673;28;20038;-36
2023/05/07 10:55:17;;;;;;;3.40;1.75;;;;;;;16.52;45.99;102310.22;4999609;28;20098;-36
2023/05/07 10:57:43;;;;;;;4.97;2.40;;;;;;;16.58;46.43;102308.03;4980384;28;20033;-36
2023/05/07 11:05:19;;;;;;;4.93;2.30;;;;;;;16.75;45.37;102300.88;4878471;27;5860890;-39
2023/05/07 11:11:58;;;;;;;5.10;2.58;;;;;;;16.77;43.95;102305.16;4922688;27;4523665;-38
2023/05/07 11:24:12;;;;;;;5.05;2.78;;;;;;;16.92;45.38;102302.53;4946283;27;3602921;-41
2023/05/07 11:27:03;;;;;;;6.18;2.72;;;;;;;17.01;43.56;102303.81;5074377;27;20680;-42
2023/05/07 11:29:35;;;;;;;6.05;3.22;;;;;;;17.11;44.85;102301.44;5057096;28;20063;-40
2023/05/07 11:32:05;;;;;;;5.32;2.53;;;;;;;17.15;44.46;102295.84;5073814;27;20038;-38
2023/05/07 11:34:36;;;;;;;4.93;2.70;;;;;;;17.25;43.44;102300.59;5096015;27;20036;-41
2023/05/07 11:37:05;;;;;;;4.60;2.30;;;;;;;17.31;43.44;102301.09;5100391;27;20035;-39
2023/05/07 11:39:34;;;;;;;12.52;3.30;;;;;;;17.35;43.25;102291.94;5095716;27;20123;-41
2023/05/07 11:42:05;;;;;;;14.85;5.38;;;;;;;17.40;42.88;102293.47;5051139;27;20036;-41
2023/05/07 11:44:46;;;;;;;5.80;2.80;;;;;;;17.48;42.18;102296.50;5104678;27;20050;-39
2023/05/07 11:47:20;;;;;;;6.28;2.50;;;;;;;17.54;42.47;102296.13;5085621;28;20031;-37
2023/05/07 11:49:54;;;;;;;6.18;2.55;;;;;;;17.58;41.74;102302.97;5084820;27;20035;-39
2023/05/07 11:52:21;;;;;;;4.40;2.17;;;;;;;17.64;42.15;102302.56;5084550;27;20042;-41
2023/05/07 11:55:01;;;;;;;6.55;2.58;;;;;;;17.68;41.29;102300.59;5086260;27;20049;-42
2023/05/07 11:57:37;;;;;;;3.88;2.10;;;;;;;17.72;42.23;102303.91;5097788;27;20032;-43
2023/05/07 12:00:18;;;;;;;5.72;2.42;;;;;;;17.78;41.33;102300.84;5077695;27;20042;-43
2023/05/07 12:02:48;;;;;;;4.00;2.47;;;;;;;17.82;41.40;102311.22;5091283;27;20035;-42
2023/05/07 12:05:14;;;;;;;5.85;2.50;;;;;;;17.85;41.41;102310.16;5091009;28;20276;-40
2023/05/07 12:07:45;;;;;;;9.10;2.20;;;;;;;17.92;39.83;102297.31;5084127;27;20501;-36
2023/05/07 12:10:24;;;;;;;5.03;2.15;;;;;;;17.94;40.73;102296.25;5089681;28;20030;-42
2023/05/07 12:12:55;;;;;;;6.47;2.38;;;;;;;18.00;41.12;102299.50;5071496;28;20110;-37
2023/05/07 12:15:26;;;;;;;5.60;3.25;;;;;;;18.06;41.24;102307.13;5082612;28;20035;-39
2023/05/07 12:17:52;;;;;;;7.63;3.20;;;;;;;18.12;41.00;102301.38;5085469;27;20052;-35
2023/05/07 12:20:18;;;;;;;5.18;2.78;;;;;;;18.14;40.71;102296.81;5079736;28;20481;-39
2023/05/07 12:22:47;;;;;;;6.60;3.47;;;;;;;18.18;40.47;102300.97;5078514;28;20027;-35
2023/05/07 12:25:22;;;;;;;13.30;7.43;;;;;;;18.26;40.13;102305.81;5105264;28;20126;-35
2023/05/07 12:27:55;;;;;;;11.02;4.57;;;;;;;18.32;40.18;102309.88;5113279;27;20075;-41
2023/05/07 12:30:23;;;;;;;5.07;2.15;;;;;;;18.36;39.75;102312.22;5064283;27;21573;-38
2023/05/07 12:32:53;;;;;;;3.15;1.65;;;;;;;18.42;39.17;102313.63;5084664;27;20497;-39